createdAt,value
2022-10-05T00:00:55.949Z,12.85
2022-10-05T00:03:27.613Z,13.10
2022-10-05T00:05:54.781Z,13.10
2022-10-05T00:08:31.872Z,13.17
2022-10-05T00:10:59.680Z,13.20
2022-10-05T00:13:30.076Z,13.13
2022-10-05T00:16:15.259Z,13.17
2022-10-05T00:18:46.565Z,13.04
2022-10-05T00:21:26.368Z,13.14
2022-10-05T00:23:57.700Z,13.18
2022-10-05T00:26:33.362Z,13.21
2022-10-05T00:29:02.770Z,13.23
2022-10-05T00:31:32.950Z,13.23
2022-10-05T00:34:00.419Z,13.25
2022-10-05T00:36:27.700Z,13.22
2022-10-05T00:38:55.560Z,13.26
2022-10-05T00:41:40.848Z,13.18
2022-10-05T00:44:26.334Z,13.06
2022-10-05T00:46:59.449Z,13.11
2022-10-05T00:49:38.590Z,13.14
2022-10-05T00:52:22.269Z,13.12
2022-10-05T00:55:03.414Z,13.11
2022-10-05T00:57:57.293Z,13.20
2022-10-05T01:00:27.361Z,13.18
2022-10-05T01:03:08.885Z,13.19
2022-10-05T01:06:15.018Z,13.21
2022-10-05T01:08:54.207Z,13.10
2022-10-05T01:11:30.802Z,13.13
2022-10-05T01:14:05.884Z,13.14
2022-10-05T01:16:50.621Z,13.11
2022-10-05T01:19:51.259Z,13.11
2022-10-05T01:22:34.018Z,13.12
2022-10-05T01:25:27.079Z,13.06
2022-10-05T01:27:59.576Z,12.92
2022-10-05T01:30:28.312Z,12.92
2022-10-05T01:33:01.614Z,12.94
2022-10-05T01:35:47.053Z,12.96
2022-10-05T01:38:42.916Z,12.93
2022-10-05T01:41:15.986Z,12.79
2022-10-05T01:43:49.443Z,12.77
2022-10-05T01:46:16.889Z,12.57
2022-10-05T01:48:56.007Z,12.68
2022-10-05T01:51:26.078Z,12.72
2022-10-05T01:54:16.653Z,12.76
2022-10-05T01:56:55.312Z,12.85
2022-10-05T01:59:59.691Z,12.70
2022-10-05T02:02:32.075Z,12.73
2022-10-05T02:05:08.347Z,12.78
2022-10-05T02:08:16.933Z,12.76
2022-10-05T02:10:53.673Z,12.85
2022-10-05T02:13:47.593Z,12.74
2022-10-05T02:16:17.828Z,12.82
2022-10-05T02:19:03.684Z,12.80
2022-10-05T02:21:34.295Z,12.73
2022-10-05T02:24:08.347Z,12.68
2022-10-05T02:26:38.068Z,12.74
2022-10-05T02:29:11.625Z,12.70
2022-10-05T02:31:52.877Z,12.76
2022-10-05T02:34:27.093Z,12.70
2022-10-05T02:37:22.378Z,12.71
2022-10-05T02:40:16.484Z,12.65
2022-10-05T02:43:18.523Z,12.69
2022-10-05T02:45:49.112Z,12.72
2022-10-05T02:48:58.269Z,12.68
2022-10-05T02:51:40.935Z,12.70
2022-10-05T02:54:53.313Z,12.71
2022-10-05T02:57:34.475Z,12.70
2022-10-05T03:00:14.455Z,12.68
2022-10-05T03:02:56.077Z,12.65
2022-10-05T03:05:41.994Z,12.61
2022-10-05T03:08:38.901Z,12.46
2022-10-05T03:11:23.506Z,12.57
2022-10-05T03:14:14.390Z,12.60
2022-10-05T03:16:53.952Z,12.49
2022-10-05T03:19:58.870Z,12.54
2022-10-05T03:22:53.600Z,12.56
2022-10-05T03:25:41.191Z,12.53
2022-10-05T03:28:17.643Z,12.53
2022-10-05T03:31:13.653Z,12.50
2022-10-05T03:33:48.166Z,12.57
2022-10-05T03:36:30.465Z,12.55
2022-10-05T03:39:40.998Z,12.51
2022-10-05T03:42:29.804Z,12.48
2022-10-05T03:45:27.494Z,12.43
2022-10-05T03:48:08.728Z,12.41
2022-10-05T03:51:01.104Z,12.33
2022-10-05T03:53:54.755Z,12.36
2022-10-05T03:56:47.618Z,12.34
2022-10-05T03:59:17.567Z,12.30
2022-10-05T04:01:52.098Z,12.28
2022-10-05T04:04:26.593Z,12.31
2022-10-05T04:06:55.708Z,12.29
2022-10-05T04:09:30.603Z,12.26
2022-10-05T04:12:30.499Z,12.20
2022-10-05T04:15:03.865Z,12.26
2022-10-05T04:17:42.466Z,12.24
2022-10-05T04:20:22.685Z,12.25
2022-10-05T04:23:13.223Z,12.21
2022-10-05T04:25:51.959Z,12.19
2022-10-05T04:28:32.315Z,12.15
2022-10-05T04:31:05.609Z,12.00
2022-10-05T04:33:33.567Z,12.05
2022-10-05T04:36:04.403Z,12.12
2022-10-05T04:38:50.260Z,12.12
2022-10-05T04:41:42.379Z,12.11
2022-10-05T04:44:34.998Z,11.93
2022-10-05T04:47:39.404Z,12.06
2022-10-05T04:50:44.357Z,12.10
2022-10-05T04:53:17.795Z,12.09
2022-10-05T04:55:55.346Z,12.08
2022-10-05T04:58:42.589Z,12.09
2022-10-05T05:01:42.713Z,12.03
2022-10-05T05:04:48.278Z,12.01
2022-10-05T05:07:43.619Z,12.10
2022-10-05T05:10:32.944Z,12.15
2022-10-05T05:13:15.250Z,12.15
2022-10-05T05:16:01.506Z,12.24
2022-10-05T05:18:47.605Z,12.28
2022-10-05T05:21:20.967Z,12.29
2022-10-05T05:23:57.852Z,12.29
2022-10-05T05:26:51.480Z,12.32
2022-10-05T05:29:23.726Z,12.33
2022-10-05T05:32:06.092Z,12.35
2022-10-05T05:35:05.313Z,12.40
2022-10-05T05:37:39.701Z,12.49
2022-10-05T05:40:16.004Z,12.55
2022-10-05T05:42:57.851Z,12.58
2022-10-05T05:45:42.512Z,12.67
2022-10-05T05:48:40.783Z,12.75
2022-10-05T05:51:14.311Z,12.85
2022-10-05T05:53:55.217Z,12.82
2022-10-05T05:56:32.099Z,12.89
2022-10-05T05:59:33.357Z,12.94
2022-10-05T06:02:09.454Z,13.11
2022-10-05T06:04:45.153Z,13.06
2022-10-05T06:07:18.176Z,13.11
2022-10-05T06:09:54.665Z,13.21
2022-10-05T06:12:41.682Z,13.14
2022-10-05T06:15:30.999Z,13.33
2022-10-05T06:18:02.550Z,13.37
2022-10-05T06:20:42.115Z,13.48
2022-10-05T06:23:34.212Z,13.57
2022-10-05T06:26:10.460Z,13.66
2022-10-05T06:28:39.053Z,13.75
2022-10-05T06:31:58.861Z,13.84
2022-10-05T06:34:42.039Z,14.01
2022-10-05T06:37:23.161Z,13.85
2022-10-05T06:40:16.578Z,14.09
2022-10-05T06:42:49.991Z,14.15
2022-10-05T06:46:03.081Z,14.20
2022-10-05T06:49:41.156Z,14.18
2022-10-05T06:52:36.307Z,14.31
2022-10-05T06:55:30.426Z,14.37
2022-10-05T06:58:02.778Z,14.40
2022-10-05T07:00:42.939Z,14.28
2022-10-05T07:03:29.196Z,14.12
2022-10-05T07:06:16.886Z,14.18
2022-10-05T07:09:14.837Z,14.29
2022-10-05T07:12:08.270Z,14.56
2022-10-05T07:14:46.565Z,14.60
2022-10-05T07:17:26.773Z,14.50
2022-10-05T07:20:23.385Z,14.67
2022-10-05T07:23:11.061Z,14.77
2022-10-05T07:25:44.342Z,14.69
2022-10-05T07:28:19.766Z,14.86
2022-10-05T07:31:00.566Z,14.81
2022-10-05T07:33:43.295Z,14.81
2022-10-05T07:36:38.505Z,15.17
2022-10-05T07:39:13.332Z,15.33
2022-10-05T07:41:52.676Z,15.42
2022-10-05T07:44:45.758Z,15.30
2022-10-05T07:47:27.880Z,15.41
2022-10-05T07:50:04.247Z,15.44
2022-10-05T07:52:40.032Z,15.74
2022-10-05T07:55:18.477Z,15.92
2022-10-05T07:57:57.800Z,15.97
2022-10-05T08:00:49.092Z,16.09
2022-10-05T08:03:38.827Z,16.28
2022-10-05T08:06:11.080Z,16.38
2022-10-05T08:08:38.389Z,16.44
2022-10-05T08:11:15.165Z,16.51
2022-10-05T08:14:02.445Z,16.59
2022-10-05T08:16:35.343Z,16.47
2022-10-05T08:19:10.276Z,16.54
2022-10-05T08:21:41.809Z,16.71
2022-10-05T08:24:46.288Z,16.86
2022-10-05T08:27:19.901Z,16.62
2022-10-05T08:29:57.183Z,16.79
2022-10-05T08:32:27.835Z,16.72
2022-10-05T08:35:27.353Z,16.89
2022-10-05T08:37:55.332Z,17.08
2022-10-05T08:40:25.525Z,17.11
2022-10-05T08:43:39.823Z,17.26
2022-10-05T08:46:25.648Z,17.29
2022-10-05T08:49:24.774Z,17.44
2022-10-05T08:52:22.728Z,17.47
2022-10-05T08:55:08.628Z,17.47
2022-10-05T08:58:13.365Z,17.27
2022-10-05T09:00:55.263Z,17.24
2022-10-05T09:04:00.362Z,17.51
2022-10-05T09:06:45.903Z,17.66
2022-10-05T09:09:31.214Z,17.76
2022-10-05T09:12:10.329Z,17.71
2022-10-05T09:14:56.433Z,17.74
2022-10-05T09:18:10.624Z,17.81
2022-10-05T09:20:54.298Z,18.11
2022-10-05T09:23:38.927Z,18.28
2022-10-05T09:26:43.615Z,18.48
2022-10-05T09:29:29.557Z,18.66
2022-10-05T09:32:19.807Z,18.74
2022-10-05T09:35:34.619Z,18.78
2022-10-05T09:38:20.344Z,18.36
2022-10-05T09:40:56.249Z,18.63
2022-10-05T09:44:00.939Z,18.96
2022-10-05T09:46:40.156Z,19.20
2022-10-05T09:49:20.315Z,19.21
2022-10-05T09:52:32.155Z,19.02
2022-10-05T09:55:31.172Z,19.05
2022-10-05T09:58:14.982Z,19.21
2022-10-05T10:01:09.463Z,19.15
2022-10-05T10:04:10.607Z,19.53
2022-10-05T10:07:16.477Z,19.82
2022-10-05T10:10:04.897Z,20.02
2022-10-05T10:12:31.901Z,20.12
2022-10-05T10:15:11.286Z,20.28
2022-10-05T10:17:53.488Z,20.37
2022-10-05T10:21:06.265Z,20.52
2022-10-05T10:24:03.929Z,20.56
2022-10-05T10:27:03.610Z,20.60
2022-10-05T10:29:51.151Z,20.59
2022-10-05T10:32:21.336Z,20.45
2022-10-05T10:34:57.688Z,20.50
2022-10-05T10:37:58.661Z,20.20
2022-10-05T10:40:53.251Z,20.31
2022-10-05T10:43:45.925Z,20.35
2022-10-05T10:46:50.518Z,20.15
2022-10-05T10:49:55.287Z,20.09
2022-10-05T10:52:28.473Z,20.27
2022-10-05T10:55:17.143Z,20.49
2022-10-05T10:57:53.451Z,20.70
2022-10-05T11:00:49.902Z,20.54
2022-10-05T11:03:55.665Z,20.88
2022-10-05T11:06:50.196Z,20.78
2022-10-05T11:09:35.494Z,20.69
2022-10-05T11:12:41.434Z,20.87
2022-10-05T11:15:26.169Z,20.90
2022-10-05T11:18:11.682Z,20.99
2022-10-05T11:20:57.301Z,21.07
2022-10-05T11:23:54.912Z,21.08
2022-10-05T11:26:37.247Z,21.14
2022-10-05T11:29:34.579Z,21.11
2022-10-05T11:32:40.321Z,21.13
2022-10-05T11:35:35.026Z,21.15
2022-10-05T11:38:08.274Z,21.30
2022-10-05T11:41:03.431Z,21.48
2022-10-05T11:43:53.430Z,21.12
2022-10-05T11:46:26.516Z,21.43
2022-10-05T11:49:25.959Z,21.50
2022-10-05T11:52:14.117Z,21.58
2022-10-05T11:55:16.155Z,21.55
2022-10-05T11:57:49.304Z,21.66
2022-10-05T12:00:24.945Z,21.75
2022-10-05T12:03:21.589Z,21.84
2022-10-05T12:05:58.032Z,22.06
2022-10-05T12:08:37.340Z,22.11
2022-10-05T12:11:16.511Z,22.20
2022-10-05T12:14:15.924Z,22.39
2022-10-05T12:16:58.975Z,22.42
2022-10-05T12:19:30.062Z,22.20
2022-10-05T12:22:23.555Z,22.11
2022-10-05T12:25:18.149Z,22.15
2022-10-05T12:27:49.766Z,22.11
2022-10-05T12:30:28.834Z,22.38
2022-10-05T12:33:17.493Z,22.53
2022-10-05T12:36:05.712Z,22.60
2022-10-05T12:38:50.580Z,22.25
2022-10-05T12:41:36.776Z,22.13
2022-10-05T12:44:35.389Z,21.91
2022-10-05T12:47:44.733Z,21.79
2022-10-05T12:50:33.671Z,21.98
2022-10-05T12:53:22.772Z,21.89
2022-10-05T12:56:15.106Z,21.99
2022-10-05T12:59:29.537Z,22.09
2022-10-05T13:02:25.468Z,22.32
2022-10-05T13:05:15.596Z,22.35
2022-10-05T13:08:07.334Z,22.43
2022-10-05T13:10:37.516Z,22.37
2022-10-05T13:13:23.788Z,22.25
2022-10-05T13:16:03.236Z,22.20
2022-10-05T13:18:40.048Z,21.96
2022-10-05T13:21:12.849Z,22.00
2022-10-05T13:23:45.973Z,22.11
2022-10-05T13:26:21.929Z,21.90
2022-10-05T13:29:24.496Z,21.95
2022-10-05T13:32:00.411Z,22.18
2022-10-05T13:34:40.400Z,22.53
2022-10-05T13:37:26.240Z,22.63
2022-10-05T13:40:33.187Z,22.54
2022-10-05T13:43:06.783Z,22.45
2022-10-05T13:45:45.398Z,22.27
2022-10-05T13:48:41.375Z,22.24
2022-10-05T13:51:37.259Z,22.34
2022-10-05T13:54:42.036Z,22.27
2022-10-05T13:57:33.105Z,22.10
2022-10-05T14:00:27.087Z,21.95
2022-10-05T14:02:56.455Z,21.99
2022-10-05T14:05:29.374Z,21.94
2022-10-05T14:07:56.559Z,21.86
2022-10-05T14:10:40.541Z,21.86
2022-10-05T14:13:45.243Z,21.80
2022-10-05T14:16:12.419Z,21.98
2022-10-05T14:18:53.011Z,22.17
2022-10-05T14:21:31.029Z,22.30
2022-10-05T14:24:46.160Z,22.37
2022-10-05T14:27:21.307Z,22.22
2022-10-05T14:30:08.673Z,22.24
2022-10-05T14:32:59.586Z,22.32
2022-10-05T14:35:31.033Z,22.08
2022-10-05T14:38:01.147Z,21.93
2022-10-05T14:40:30.089Z,21.87
2022-10-05T14:43:00.105Z,21.71
2022-10-05T14:45:31.188Z,21.58
2022-10-05T14:48:01.837Z,21.74
2022-10-05T14:50:31.454Z,21.74
2022-10-05T14:53:21.313Z,21.77
2022-10-05T14:56:46.154Z,21.66
2022-10-05T14:59:38.336Z,21.73
2022-10-05T15:02:52.203Z,21.77
2022-10-05T15:05:45.988Z,21.84
2022-10-05T15:08:28.133Z,22.09
2022-10-05T15:11:21.490Z,22.16
2022-10-05T15:13:49.304Z,22.18
2022-10-05T15:16:38.398Z,22.17
2022-10-05T15:19:22.844Z,22.32
2022-10-05T15:21:55.319Z,22.34
2022-10-05T15:24:49.010Z,22.29
2022-10-05T15:27:45.214Z,22.24
2022-10-05T15:30:18.227Z,22.22
2022-10-05T15:33:05.361Z,22.12
2022-10-05T15:35:49.115Z,22.02
2022-10-05T15:38:22.194Z,21.97
2022-10-05T15:41:17.231Z,21.97
2022-10-05T15:44:22.677Z,21.90
2022-10-05T15:46:58.863Z,21.80
2022-10-05T15:49:37.047Z,21.74
2022-10-05T15:52:31.913Z,21.58
2022-10-05T15:55:17.709Z,21.52
2022-10-05T15:58:08.524Z,21.38
2022-10-05T16:00:49.015Z,21.37
2022-10-05T16:03:27.652Z,21.16
2022-10-05T16:06:18.872Z,21.27
2022-10-05T16:09:09.284Z,21.16
2022-10-05T16:11:54.834Z,21.26
2022-10-05T16:14:35.761Z,21.14
2022-10-05T16:17:18.301Z,21.03
2022-10-05T16:20:14.707Z,20.90
2022-10-05T16:23:05.453Z,20.74
2022-10-05T16:26:10.247Z,20.49
2022-10-05T16:28:53.226Z,20.39
2022-10-05T16:31:49.236Z,20.31
2022-10-05T16:34:50.255Z,20.19
2022-10-05T16:37:38.567Z,20.03
2022-10-05T16:40:30.136Z,19.98
2022-10-05T16:42:57.209Z,19.94
2022-10-05T16:45:48.218Z,19.68
2022-10-05T16:48:28.943Z,19.43
2022-10-05T16:51:18.111Z,19.44
2022-10-05T16:53:56.117Z,19.33
2022-10-05T16:56:28.792Z,18.98
2022-10-05T16:59:29.835Z,19.10
2022-10-05T17:02:24.560Z,19.08
2022-10-05T17:04:58.180Z,19.04
2022-10-05T17:07:35.181Z,18.86
2022-10-05T17:10:29.713Z,18.98
2022-10-05T17:12:56.721Z,18.90
2022-10-05T17:15:54.120Z,18.85
2022-10-05T17:18:29.420Z,18.75
2022-10-05T17:21:12.850Z,18.82
2022-10-05T17:24:39.237Z,18.83
2022-10-05T17:27:32.937Z,18.74
2022-10-05T17:30:28.492Z,18.66
2022-10-05T17:33:14.750Z,18.63
2022-10-05T17:36:03.329Z,18.52
2022-10-05T17:38:30.405Z,18.45
2022-10-05T17:41:00.509Z,18.32
2022-10-05T17:43:30.884Z,18.24
2022-10-05T17:46:03.920Z,18.06
2022-10-05T17:48:42.864Z,18.06
2022-10-05T17:51:36.061Z,18.05
2022-10-05T17:54:39.277Z,17.96
2022-10-05T17:57:06.619Z,17.86
2022-10-05T17:59:54.052Z,17.48
2022-10-05T18:02:40.772Z,17.57
2022-10-05T18:05:15.390Z,17.54
2022-10-05T18:07:48.801Z,17.47
2022-10-05T18:10:30.023Z,17.46
2022-10-05T18:13:00.325Z,17.42
2022-10-05T18:15:27.341Z,17.36
2022-10-05T18:18:32.375Z,17.24
2022-10-05T18:21:20.514Z,17.25
2022-10-05T18:24:00.395Z,17.22
2022-10-05T18:27:12.799Z,17.09
2022-10-05T18:30:03.959Z,17.00
2022-10-05T18:32:53.617Z,16.98
2022-10-05T18:35:56.243Z,16.82
2022-10-05T18:38:53.225Z,16.52
2022-10-05T18:41:32.560Z,16.33
2022-10-05T18:44:14.397Z,16.43
2022-10-05T18:46:56.256Z,16.36
2022-10-05T18:49:51.936Z,16.47
2022-10-05T18:53:06.145Z,16.39
2022-10-05T18:55:43.918Z,16.34
2022-10-05T18:58:22.455Z,16.28
2022-10-05T19:01:11.266Z,16.19
2022-10-05T19:03:41.616Z,16.21
2022-10-05T19:06:12.957Z,16.16
2022-10-05T19:09:18.794Z,16.06
2022-10-05T19:11:49.873Z,15.99
2022-10-05T19:14:37.332Z,15.92
2022-10-05T19:17:25.836Z,15.62
2022-10-05T19:20:35.736Z,15.37
2022-10-05T19:23:18.858Z,15.13
2022-10-05T19:25:55.029Z,15.14
2022-10-05T19:28:41.378Z,15.18
2022-10-05T19:31:11.448Z,15.24
2022-10-05T19:33:44.685Z,15.21
2022-10-05T19:36:17.898Z,14.95
2022-10-05T19:39:08.191Z,14.84
2022-10-05T19:42:13.964Z,15.05
2022-10-05T19:45:02.777Z,14.93
2022-10-05T19:47:54.925Z,15.04
2022-10-05T19:50:33.816Z,15.12
2022-10-05T19:53:24.395Z,15.13
2022-10-05T19:55:51.711Z,15.11
2022-10-05T19:58:21.000Z,15.05
2022-10-05T20:01:02.485Z,15.09
2022-10-05T20:03:32.450Z,15.05
2022-10-05T20:06:02.067Z,14.99
2022-10-05T20:08:39.440Z,14.84
2022-10-05T20:11:13.952Z,15.11
2022-10-05T20:13:44.570Z,14.93
2022-10-05T20:16:36.389Z,15.07
2022-10-05T20:19:24.137Z,15.00
2022-10-05T20:21:56.879Z,15.00
2022-10-05T20:24:26.577Z,14.79
2022-10-05T20:27:02.840Z,14.82
2022-10-05T20:29:35.623Z,14.81
2022-10-05T20:32:12.391Z,14.70
2022-10-05T20:34:41.785Z,14.82
2022-10-05T20:37:14.361Z,14.85
2022-10-05T20:39:42.033Z,14.81
2022-10-05T20:42:10.806Z,14.87
2022-10-05T20:44:38.432Z,14.85
2022-10-05T20:47:09.562Z,14.84
2022-10-05T20:49:39.218Z,14.81
2022-10-05T20:52:09.877Z,14.77
2022-10-05T20:54:38.511Z,14.72
2022-10-05T20:57:07.323Z,14.75
2022-10-05T20:59:35.672Z,14.59
2022-10-05T21:02:03.926Z,14.46
2022-10-05T21:04:40.374Z,14.52
2022-10-05T21:07:08.913Z,14.52
2022-10-05T21:09:38.551Z,14.33
2022-10-05T21:12:05.835Z,14.45
2022-10-05T21:14:36.358Z,14.37
2022-10-05T21:17:05.259Z,14.53
2022-10-05T21:19:38.321Z,14.35
2022-10-05T21:22:10.016Z,14.48
2022-10-05T21:24:38.714Z,14.42
2022-10-05T21:27:06.567Z,14.32
2022-10-05T21:29:35.629Z,14.29
2022-10-05T21:32:03.207Z,14.26
2022-10-05T21:34:30.398Z,14.20
2022-10-05T21:36:57.531Z,14.22
2022-10-05T21:39:25.370Z,14.17
2022-10-05T21:41:52.706Z,14.23
2022-10-05T21:44:20.162Z,14.02
2022-10-05T21:46:50.447Z,13.96
2022-10-05T21:49:20.042Z,13.30
2022-10-05T21:51:48.171Z,13.77
2022-10-05T21:54:20.215Z,13.71
2022-10-05T21:56:52.917Z,13.58
2022-10-05T21:59:24.278Z,13.57
2022-10-05T22:01:51.883Z,13.31
2022-10-05T22:04:19.078Z,13.44
2022-10-05T22:06:46.148Z,13.41
2022-10-05T22:09:13.408Z,13.46
2022-10-05T22:11:40.652Z,13.45
2022-10-05T22:14:07.867Z,13.44
2022-10-05T22:16:38.627Z,13.36
2022-10-05T22:19:11.631Z,13.41
2022-10-05T22:21:41.815Z,13.27
2022-10-05T22:24:11.686Z,13.06
2022-10-05T22:26:40.464Z,12.91
2022-10-05T22:29:07.687Z,12.93
2022-10-05T22:31:35.265Z,13.05
2022-10-05T22:34:02.393Z,13.06
2022-10-05T22:36:29.707Z,13.16
2022-10-05T22:38:56.852Z,13.11
2022-10-05T22:41:24.038Z,13.31
2022-10-05T22:43:51.965Z,13.01
2022-10-05T22:46:20.034Z,13.17
2022-10-05T22:48:48.201Z,13.44
2022-10-05T22:51:15.226Z,13.23
2022-10-05T22:53:42.544Z,13.31
2022-10-05T22:56:12.999Z,13.28
2022-10-05T22:58:41.641Z,13.24
2022-10-05T23:01:14.882Z,13.34
2022-10-05T23:03:42.517Z,13.32
2022-10-05T23:06:18.380Z,12.72
2022-10-05T23:08:46.212Z,12.88
2022-10-05T23:11:16.316Z,12.98
2022-10-05T23:13:43.872Z,12.75
2022-10-05T23:16:12.314Z,13.11
2022-10-05T23:18:40.577Z,13.06
2022-10-05T23:21:09.814Z,12.96
2022-10-05T23:23:38.569Z,12.88
2022-10-05T23:26:08.007Z,12.51
2022-10-05T23:28:35.202Z,12.94
2022-10-05T23:31:05.042Z,13.03
2022-10-05T23:33:32.319Z,13.03
2022-10-05T23:36:06.215Z,12.99
2022-10-05T23:38:35.028Z,13.04
2022-10-05T23:41:02.806Z,13.02
2022-10-05T23:43:30.191Z,12.79
2022-10-05T23:45:58.181Z,12.74
2022-10-05T23:48:27.004Z,12.71
2022-10-05T23:50:55.849Z,12.61
2022-10-05T23:53:23.360Z,12.76
2022-10-05T23:55:54.653Z,12.69
2022-10-05T23:58:23.120Z,12.61
